Time;durP1;ratioP1;P1;durP2;ratioP2;P2;SDS_P1;SDS_P2;PMS_P1;PMS_P2;Temp;Humidity;BMP_temperature;BMP_pressure;BME280_temperature;BME280_humidity;BME280_pressure;Samples;Min_cycle;Max_cycle;Signal;HPM_P1;HPM_P2
2023/08/03 00:01:52;;;;;;;1.77;1.10;;;18.70;72.00;;;;;;5039019;28;20393;-63
2023/08/03 00:04:17;;;;;;;1.63;1.10;;;18.70;71.90;;;;;;5035530;28;20033;-63
2023/08/03 00:06:44;;;;;;;2.25;1.20;;;18.60;71.90;;;;;;5036692;28;20040;-62
2023/08/03 00:09:10;;;;;;;5.03;1.20;;;18.60;72.00;;;;;;5038769;28;20037;-62
2023/08/03 00:11:36;;;;;;;3.35;1.40;;;18.60;71.90;;;;;;5044769;28;20056;-61
2023/08/03 00:14:01;;;;;;;2.63;1.35;;;18.60;72.00;;;;;;5045063;28;20036;-62
2023/08/03 00:16:27;;;;;;;7.55;1.63;;;18.60;71.90;;;;;;5023148;28;20057;-62
2023/08/03 00:18:53;;;;;;;2.25;1.20;;;18.60;71.90;;;;;;5039357;28;20036;-62
2023/08/03 00:21:18;;;;;;;3.22;1.23;;;18.60;72.00;;;;;;5040825;28;20071;-62
2023/08/03 00:23:44;;;;;;;2.53;1.02;;;18.60;72.70;;;;;;5041969;28;20117;-62
2023/08/03 00:26:10;;;;;;;4.40;1.10;;;18.60;71.90;;;;;;5023337;28;20045;-62
2023/08/03 00:28:35;;;;;;;2.65;1.17;;;18.50;71.80;;;;;;5045806;28;20041;-62
2023/08/03 00:31:01;;;;;;;6.28;1.20;;;18.50;71.80;;;;;;5042562;28;20040;-62
2023/08/03 00:33:26;;;;;;;1.55;1.15;;;18.50;71.80;;;;;;5041320;28;20029;-62
2023/08/03 00:35:52;;;;;;;3.67;1.17;;;18.50;71.80;;;;;;5043129;28;20032;-63
2023/08/03 00:38:18;;;;;;;3.08;1.30;;;18.50;71.90;;;;;;5039861;28;20112;-63
2023/08/03 00:40:44;;;;;;;4.05;1.50;;;18.40;71.80;;;;;;5051370;28;20025;-62
2023/08/03 00:43:09;;;;;;;4.15;1.35;;;18.40;71.80;;;;;;5051429;28;20399;-62
2023/08/03 00:45:35;;;;;;;4.78;1.23;;;18.40;71.90;;;;;;5038458;28;20090;-62
2023/08/03 00:48:01;;;;;;;1.90;1.00;;;18.40;71.90;;;;;;5044162;28;20472;-62
2023/08/03 00:50:27;;;;;;;7.00;1.30;;;18.40;71.90;;;;;;5047130;28;20025;-62
2023/08/03 00:52:52;;;;;;;4.00;1.30;;;18.40;71.90;;;;;;5046396;28;20025;-64
2023/08/03 00:55:18;;;;;;;3.60;1.40;;;18.30;71.90;;;;;;5040648;28;20104;-62
2023/08/03 00:57:44;;;;;;;2.67;1.20;;;18.30;72.00;;;;;;5049522;28;20032;-62
2023/08/03 01:00:10;;;;;;;4.30;1.35;;;18.30;72.00;;;;;;5023847;28;20143;-62
2023/08/03 01:02:36;;;;;;;4.68;1.20;;;18.30;72.00;;;;;;5039124;28;20017;-62
2023/08/03 01:05:01;;;;;;;5.75;1.52;;;18.20;71.90;;;;;;5039321;28;20115;-61
2023/08/03 01:07:27;;;;;;;3.30;1.40;;;18.20;72.00;;;;;;5042885;28;20488;-62
2023/08/03 01:09:53;;;;;;;6.57;1.33;;;18.10;72.20;;;;;;5040256;28;20092;-62
2023/08/03 01:12:19;;;;;;;5.38;1.58;;;18.10;72.20;;;;;;5034385;28;20053;-62
2023/08/03 01:14:45;;;;;;;4.20;1.50;;;18.10;72.20;;;;;;5034173;28;20733;-62
2023/08/03 01:17:11;;;;;;;6.53;1.58;;;18.00;72.20;;;;;;5041102;28;20013;-62
2023/08/03 01:19:37;;;;;;;4.90;1.50;;;18.00;72.10;;;;;;5041135;28;20025;-62
2023/08/03 01:22:03;;;;;;;3.38;1.40;;;18.00;72.10;;;;;;5040831;28;20040;-62
2023/08/03 01:24:29;;;;;;;12.50;2.08;;;18.00;72.10;;;;;;5035544;28;20683;-62
2023/08/03 01:26:59;;;;;;;8.27;1.73;;;17.90;71.80;;;;;;5044539;28;20041;-62
2023/08/03 01:29:25;;;;;;;6.32;1.80;;;17.90;71.90;;;;;;5040329;28;20033;-62
2023/08/03 01:31:56;;;;;;;8.57;2.03;;;17.90;71.80;;;;;;5040658;28;20361;-61
2023/08/03 01:34:23;;;;;;;6.78;1.60;;;17.90;71.80;;;;;;5040880;28;20029;-62
2023/08/03 01:36:48;;;;;;;5.93;1.90;;;17.90;71.70;;;;;;5044795;28;20495;-61
2023/08/03 01:39:14;;;;;;;4.00;1.63;;;17.90;71.50;;;;;;5039330;28;20086;-61
2023/08/03 01:41:41;;;;;;;4.78;1.63;;;17.90;71.50;;;;;;5046239;28;20120;-62
2023/08/03 01:44:24;;;;;;;6.95;1.92;;;17.80;71.40;;;;;;5035071;28;20026;-61
2023/08/03 01:46:51;;;;;;;5.00;1.70;;;17.90;71.80;;;;;;5021004;28;20036;-62
2023/08/03 01:49:17;;;;;;;10.95;1.98;;;17.80;71.40;;;;;;5041032;28;20017;-62
2023/08/03 01:51:43;;;;;;;5.25;1.55;;;17.80;71.90;;;;;;5043037;28;20481;-63
2023/08/03 01:54:10;;;;;;;8.13;2.03;;;17.80;70.90;;;;;;5037277;28;20040;-62
2023/08/03 01:56:36;;;;;;;10.68;1.55;;;17.80;71.00;;;;;;5037816;28;20116;-62
2023/08/03 01:59:01;;;;;;;8.23;1.70;;;17.80;70.80;;;;;;5042438;28;20151;-63
2023/08/03 02:01:27;;;;;;;4.80;1.67;;;17.80;70.80;;;;;;5038322;28;20436;-63
2023/08/03 02:03:53;;;;;;;10.55;2.40;;;17.80;70.50;;;;;;5034585;28;20036;-62
2023/08/03 02:06:19;;;;;;;7.10;1.80;;;17.80;69.20;;;;;;5042512;28;20025;-62
2023/08/03 02:08:44;;;;;;;4.85;1.50;;;17.80;69.60;;;;;;5035329;28;20033;-63
2023/08/03 02:11:10;;;;;;;5.60;1.60;;;17.80;69.10;;;;;;5040677;28;20059;-61
2023/08/03 02:13:36;;;;;;;5.75;1.65;;;17.80;68.60;;;;;;5038214;28;20087;-60
2023/08/03 02:16:08;;;;;;;4.88;1.58;;;17.90;68.20;;;;;;5002266;28;20029;-60
2023/08/03 02:18:34;;;;;;;8.02;1.73;;;18.00;67.70;;;;;;5041488;28;20041;-62
2023/08/03 02:21:00;;;;;;;7.38;1.70;;;18.10;67.50;;;;;;5042180;28;20025;-62
2023/08/03 02:23:26;;;;;;;5.20;1.65;;;18.20;67.00;;;;;;5042390;28;20075;-61
2023/08/03 02:25:51;;;;;;;11.23;1.60;;;18.30;66.50;;;;;;5038351;28;20079;-62
2023/08/03 02:28:17;;;;;;;6.47;1.42;;;18.40;66.20;;;;;;5038567;28;20036;-63
2023/08/03 02:30:43;;;;;;;3.17;1.25;;;18.50;65.90;;;;;;5036531;28;20032;-63
2023/08/03 02:33:09;;;;;;;5.63;1.80;;;18.50;65.10;;;;;;5032947;28;20033;-62
2023/08/03 02:35:37;;;;;;;9.27;1.55;;;18.60;65.20;;;;;;5040471;28;20480;-61
2023/08/03 02:38:04;;;;;;;8.43;1.55;;;18.70;64.90;;;;;;5044774;28;20028;-61
2023/08/03 02:40:29;;;;;;;5.20;1.40;;;18.70;64.40;;;;;;5054844;28;20029;-62
2023/08/03 02:42:55;;;;;;;3.70;1.27;;;18.80;64.60;;;;;;5048688;28;20043;-62
2023/08/03 02:45:21;;;;;;;4.43;1.40;;;18.70;63.90;;;;;;5051315;28;20059;-62
2023/08/03 02:47:46;;;;;;;7.65;1.85;;;18.80;64.00;;;;;;5044006;28;20029;-63
2023/08/03 02:50:13;;;;;;;9.38;1.60;;;18.80;63.50;;;;;;5024010;28;20333;-61
2023/08/03 02:52:40;;;;;;;5.25;1.40;;;18.80;63.50;;;;;;5034514;28;20388;-61
2023/08/03 02:55:06;;;;;;;6.68;1.55;;;18.80;63.10;;;;;;5041097;28;20031;-63
2023/08/03 02:57:32;;;;;;;3.40;1.40;;;18.90;63.10;;;;;;5037581;28;20090;-61
2023/08/03 02:59:57;;;;;;;6.60;1.38;;;18.90;62.80;;;;;;5043097;28;20116;-61
2023/08/03 03:02:23;;;;;;;7.38;1.67;;;18.90;62.00;;;;;;5037231;28;20120;-61
2023/08/03 03:04:51;;;;;;;6.97;1.27;;;19.00;62.30;;;;;;5041758;28;20052;-60
2023/08/03 03:07:17;;;;;;;7.65;1.60;;;19.00;62.20;;;;;;5041337;28;20033;-61
2023/08/03 03:09:42;;;;;;;5.85;1.55;;;19.00;62.00;;;;;;5035733;28;20094;-61
2023/08/03 03:12:09;;;;;;;3.80;1.20;;;19.00;61.90;;;;;;5038903;28;20033;-61
2023/08/03 03:14:37;;;;;;;5.32;1.48;;;19.10;61.80;;;;;;5035992;28;20033;-60
2023/08/03 03:17:03;;;;;;;3.35;1.30;;;19.10;61.70;;;;;;4976285;28;20033;-61
2023/08/03 03:19:29;;;;;;;3.33;1.23;;;19.10;61.50;;;;;;5036704;28;20025;-60
2023/08/03 03:21:55;;;;;;;4.50;1.45;;;19.20;61.80;;;;;;5041539;28;20021;-62
2023/08/03 03:24:21;;;;;;;4.88;1.60;;;19.20;61.70;;;;;;5038762;28;20036;-60
2023/08/03 03:26:47;;;;;;;2.95;1.30;;;19.20;61.20;;;;;;5040389;28;20377;-60
2023/08/03 03:29:12;;;;;;;7.32;1.60;;;19.10;61.30;;;;;;5038892;28;20040;-60
2023/08/03 03:31:38;;;;;;;6.20;1.48;;;19.20;61.20;;;;;;5039759;28;20021;-60
2023/08/03 03:34:04;;;;;;;4.78;1.52;;;19.10;61.20;;;;;;5038231;28;20108;-61
2023/08/03 03:36:30;;;;;;;2.55;1.10;;;19.10;61.40;;;;;;5039309;28;20025;-61
2023/08/03 03:38:55;;;;;;;4.75;1.30;;;19.10;61.40;;;;;;5042088;28;20025;-62
2023/08/03 03:41:21;;;;;;;6.50;1.25;;;19.10;62.10;;;;;;5048283;28;20078;-61
2023/08/03 03:43:47;;;;;;;6.03;1.58;;;19.10;61.20;;;;;;5047653;28;20045;-60
2023/08/03 03:46:13;;;;;;;7.22;1.73;;;19.10;61.10;;;;;;5035515;28;20035;-60
2023/08/03 03:48:38;;;;;;;4.15;1.42;;;19.10;60.80;;;;;;5041467;28;20025;-60
2023/08/03 03:51:04;;;;;;;5.22;1.50;;;19.10;60.90;;;;;;5022483;28;20453;-62
2023/08/03 03:53:30;;;;;;;2.95;1.30;;;19.10;60.70;;;;;;5039812;28;20047;-62
2023/08/03 03:55:55;;;;;;;5.30;1.35;;;19.10;60.60;;;;;;5039815;28;20044;-61
2023/08/03 03:58:21;;;;;;;6.70;1.35;;;19.10;60.50;;;;;;5037126;28;20025;-60
2023/08/03 04:00:47;;;;;;;4.70;1.40;;;19.10;60.20;;;;;;5035431;28;20107;-61
2023/08/03 04:03:12;;;;;;;5.80;1.70;;;19.10;60.20;;;;;;5035122;28;20109;-61
2023/08/03 04:05:38;;;;;;;3.88;1.30;;;19.10;60.10;;;;;;5032589;28;20029;-61
2023/08/03 04:08:04;;;;;;;4.38;1.27;;;19.10;60.20;;;;;;5044216;28;20090;-61
2023/08/03 04:10:30;;;;;;;4.00;1.40;;;19.10;60.00;;;;;;5038707;28;20022;-62
2023/08/03 04:12:56;;;;;;;5.55;1.30;;;19.10;60.20;;;;;;5034369;28;20064;-62
2023/08/03 04:15:22;;;;;;;4.45;1.30;;;19.10;60.10;;;;;;5038766;28;20053;-61
2023/08/03 04:17:49;;;;;;;3.83;1.10;;;19.10;60.50;;;;;;5040521;28;20029;-61
2023/08/03 04:20:16;;;;;;;4.82;1.30;;;19.10;59.90;;;;;;5023215;28;20052;-60
2023/08/03 04:22:42;;;;;;;6.93;1.27;;;19.10;59.70;;;;;;5040789;28;20028;-61
2023/08/03 04:25:08;;;;;;;4.35;1.02;;;19.10;59.60;;;;;;5042457;28;20079;-61
2023/08/03 04:27:34;;;;;;;4.20;1.15;;;19.20;59.70;;;;;;5022751;28;20405;-62
2023/08/03 04:30:00;;;;;;;4.00;1.42;;;19.20;59.60;;;;;;5038046;28;20100;-61
2023/08/03 04:32:25;;;;;;;9.82;1.08;;;19.20;59.50;;;;;;5044704;28;20035;-61
2023/08/03 04:34:51;;;;;;;3.75;1.05;;;19.20;59.50;;;;;;5045865;28;20403;-62
2023/08/03 04:37:17;;;;;;;3.70;0.90;;;19.20;59.70;;;;;;5041699;28;20488;-61
2023/08/03 04:39:42;;;;;;;4.15;0.90;;;19.20;59.70;;;;;;5043897;28;20383;-60
2023/08/03 04:42:08;;;;;;;3.55;0.93;;;19.30;59.70;;;;;;5042165;28;20474;-60
2023/08/03 04:44:34;;;;;;;6.93;1.15;;;19.30;59.70;;;;;;5042620;28;21596;-61
2023/08/03 04:46:59;;;;;;;3.67;1.00;;;19.30;59.50;;;;;;5042436;28;20108;-61
2023/08/03 04:49:25;;;;;;;4.95;1.00;;;19.30;59.20;;;;;;5040330;28;20053;-61
2023/08/03 04:51:51;;;;;;;4.82;1.08;;;19.40;59.40;;;;;;5023809;28;20033;-60
2023/08/03 04:54:17;;;;;;;8.13;0.85;;;19.40;58.80;;;;;;5039673;28;20131;-62
2023/08/03 04:56:43;;;;;;;3.10;0.85;;;19.50;59.00;;;;;;5039949;28;20446;-61
2023/08/03 04:59:09;;;;;;;5.28;0.80;;;19.80;59.20;;;;;;5039453;28;20032;-61
2023/08/03 05:01:34;;;;;;;2.38;0.70;;;19.50;58.80;;;;;;5043705;28;20767;-62
2023/08/03 05:04:00;;;;;;;6.75;0.90;;;19.60;59.00;;;;;;5041248;28;20033;-61
2023/08/03 05:06:27;;;;;;;2.70;0.80;;;19.60;59.00;;;;;;5038489;28;20040;-60
2023/08/03 05:08:53;;;;;;;3.75;0.70;;;19.70;58.90;;;;;;5039387;28;20055;-61
2023/08/03 05:11:18;;;;;;;2.08;0.60;;;19.80;58.70;;;;;;5047522;28;20025;-62
2023/08/03 05:13:44;;;;;;;2.00;0.73;;;19.90;58.60;;;;;;5036990;28;20104;-61
2023/08/03 05:16:10;;;;;;;1.75;0.60;;;19.90;58.80;;;;;;4939095;28;20666;-63
2023/08/03 05:18:35;;;;;;;1.20;0.85;;;19.90;58.20;;;;;;5039102;28;20025;-60
2023/08/03 05:21:01;;;;;;;1.85;0.75;;;20.00;58.30;;;;;;5040775;28;20045;-61
2023/08/03 05:23:27;;;;;;;2.17;0.73;;;20.10;58.20;;;;;;5044380;28;20028;-60
2023/08/03 05:25:56;;;;;;;6.47;0.80;;;20.10;57.60;;;;;;5043472;28;20388;-59
2023/08/03 05:28:23;;;;;;;3.90;0.68;;;20.10;57.00;;;;;;5043175;28;20087;-60
2023/08/03 05:30:49;;;;;;;8.93;0.80;;;20.20;56.80;;;;;;5041589;28;20152;-61
2023/08/03 05:33:15;;;;;;;2.08;0.65;;;20.20;56.40;;;;;;5045621;28;20745;-62
2023/08/03 05:35:46;;;;;;;1.67;0.70;;;20.30;56.30;;;;;;5044656;28;20037;-62
2023/08/03 05:38:14;;;;;;;2.58;0.50;;;20.40;56.40;;;;;;5039498;28;20025;-62
2023/08/03 05:40:40;;;;;;;3.53;0.63;;;20.40;56.50;;;;;;5044614;28;20032;-62
2023/08/03 05:43:10;;;;;;;5.90;0.70;;;20.40;56.30;;;;;;5040545;28;20025;-61
2023/08/03 05:45:48;;;;;;;1.55;0.70;;;20.50;55.90;;;;;;5040313;28;20041;-61
2023/08/03 05:48:17;;;;;;;2.38;0.70;;;20.50;56.00;;;;;;5040080;28;20389;-60
2023/08/03 05:50:45;;;;;;;3.00;0.82;;;20.60;56.20;;;;;;5035292;28;20032;-61
2023/08/03 05:53:12;;;;;;;1.65;0.70;;;20.60;55.90;;;;;;5040583;28;20029;-60
2023/08/03 05:55:38;;;;;;;5.40;0.68;;;20.70;56.10;;;;;;5040415;28;20032;-61
2023/08/03 05:58:05;;;;;;;7.43;1.17;;;20.70;55.80;;;;;;5043339;28;20029;-62
2023/08/03 06:00:31;;;;;;;2.70;0.80;;;20.80;56.10;;;;;;5039243;28;20100;-62
2023/08/03 06:02:58;;;;;;;2.58;0.60;;;20.90;55.60;;;;;;5043185;28;20442;-61
2023/08/03 06:05:38;;;;;;;1.95;0.65;;;20.90;55.00;;;;;;5048131;28;20115;-61
2023/08/03 06:08:20;;;;;;;2.25;0.65;;;21.00;55.10;;;;;;5036876;28;20090;-62
2023/08/03 06:10:53;;;;;;;2.90;0.98;;;21.10;55.90;;;;;;5041159;28;20100;-62
2023/08/03 06:13:31;;;;;;;3.30;0.80;;;21.10;54.90;;;;;;5042490;28;20123;-63
2023/08/03 06:15:57;;;;;;;2.08;0.60;;;21.20;54.80;;;;;;5031639;28;20552;-62
2023/08/03 06:18:23;;;;;;;2.63;0.85;;;21.30;54.40;;;;;;5036650;28;20029;-62
2023/08/03 06:20:50;;;;;;;1.42;0.55;;;21.30;53.70;;;;;;5039216;28;20432;-63
2023/08/03 06:23:17;;;;;;;2.85;0.75;;;21.30;52.70;;;;;;5042313;28;20467;-62
2023/08/03 06:25:44;;;;;;;3.33;0.82;;;21.40;53.40;;;;;;5041001;28;20028;-61
2023/08/03 06:28:11;;;;;;;2.83;1.50;;;21.40;52.90;;;;;;5037865;28;20128;-63
2023/08/03 06:30:36;;;;;;;3.88;1.30;;;21.50;53.10;;;;;;5042658;28;20024;-62
2023/08/03 06:33:02;;;;;;;6.30;1.25;;;21.50;52.60;;;;;;5038584;28;20037;-64
2023/08/03 06:35:39;;;;;;;2.22;1.10;;;21.60;52.40;;;;;;5040233;28;20032;-62
2023/08/03 06:38:07;;;;;;;6.65;1.40;;;21.70;52.20;;;;;;5017057;28;20123;-62
2023/08/03 06:40:34;;;;;;;3.42;1.00;;;21.80;52.30;;;;;;5039943;28;20041;-61
2023/08/03 06:43:01;;;;;;;4.32;1.20;;;21.80;51.20;;;;;;5041716;28;20032;-62
2023/08/03 06:45:29;;;;;;;2.92;1.13;;;21.90;52.20;;;;;;5041594;28;20025;-62
2023/08/03 06:47:55;;;;;;;2.33;0.93;;;22.00;52.00;;;;;;5024456;28;20470;-60
2023/08/03 06:50:21;;;;;;;2.28;0.95;;;22.10;51.30;;;;;;5041108;28;20213;-61
2023/08/03 06:52:47;;;;;;;6.47;1.00;;;22.10;51.30;;;;;;5041325;28;20353;-62
2023/08/03 06:55:13;;;;;;;1.23;0.50;;;22.20;50.90;;;;;;5040057;28;20030;-64
2023/08/03 06:57:38;;;;;;;3.25;0.60;;;22.20;50.80;;;;;;5041994;28;20148;-63
2023/08/03 07:00:05;;;;;;;3.40;0.80;;;22.20;50.80;;;;;;5036399;28;20580;-63
2023/08/03 07:02:31;;;;;;;2.92;0.90;;;22.20;50.90;;;;;;5036359;28;20225;-62
2023/08/03 07:04:56;;;;;;;2.30;1.15;;;22.30;49.90;;;;;;5035907;28;20029;-62
2023/08/03 07:07:23;;;;;;;2.58;0.80;;;22.30;49.70;;;;;;5038790;28;20139;-62
2023/08/03 07:09:48;;;;;;;4.60;0.70;;;22.40;49.50;;;;;;5040866;28;20028;-63
2023/08/03 07:12:15;;;;;;;3.25;0.60;;;22.40;49.50;;;;;;5022253;28;20037;-60
2023/08/03 07:14:41;;;;;;;2.28;0.70;;;22.40;49.00;;;;;;5041085;28;20483;-60
2023/08/03 07:17:07;;;;;;;1.98;0.73;;;22.40;48.70;;;;;;5036771;28;20087;-63
2023/08/03 07:19:33;;;;;;;2.80;0.70;;;22.30;48.00;;;;;;5015410;28;20037;-60
2023/08/03 07:21:58;;;;;;;1.75;0.80;;;22.40;48.70;;;;;;5022096;28;20036;-61
2023/08/03 07:24:27;;;;;;;0.77;0.47;;;22.30;49.30;;;;;;5034083;28;20056;-60
2023/08/03 07:26:54;;;;;;;6.43;0.93;;;22.40;50.00;;;;;;5038852;28;20430;-62
2023/08/03 07:29:21;;;;;;;2.55;0.88;;;22.50;49.90;;;;;;5031031;28;20124;-61
2023/08/03 07:31:48;;;;;;;1.55;0.70;;;22.50;48.20;;;;;;5039190;28;20018;-62
2023/08/03 07:34:14;;;;;;;3.50;0.75;;;22.60;48.00;;;;;;5038367;28;20389;-61
2023/08/03 07:36:40;;;;;;;4.20;0.73;;;22.60;47.90;;;;;;5037670;28;20025;-62
2023/08/03 07:39:05;;;;;;;2.10;0.70;;;22.60;48.00;;;;;;5039281;28;20048;-62
2023/08/03 07:41:31;;;;;;;3.70;0.88;;;22.60;47.50;;;;;;5039373;28;20028;-62
2023/08/03 07:43:57;;;;;;;5.68;0.95;;;22.60;48.00;;;;;;5039235;28;20032;-63
2023/08/03 07:46:22;;;;;;;4.32;0.73;;;22.60;48.00;;;;;;5033432;28;20029;-63
2023/08/03 07:48:48;;;;;;;3.17;0.90;;;22.60;48.20;;;;;;5034681;28;20037;-61
2023/08/03 07:51:15;;;;;;;4.55;1.17;;;22.70;47.20;;;;;;5037025;28;20033;-62
2023/08/03 07:53:41;;;;;;;1.45;0.60;;;22.70;46.40;;;;;;5021284;28;20033;-62
2023/08/03 07:56:15;;;;;;;3.85;0.93;;;22.70;47.50;;;;;;5040584;28;20095;-62
2023/08/03 07:58:40;;;;;;;3.33;0.73;;;22.70;47.50;;;;;;5038285;28;20034;-63
2023/08/03 08:01:07;;;;;;;2.40;0.70;;;22.80;47.50;;;;;;5045279;28;20063;-63
2023/08/03 08:03:34;;;;;;;2.20;0.90;;;22.80;46.90;;;;;;5042058;28;20021;-60
2023/08/03 08:06:07;;;;;;;2.13;0.63;;;22.80;46.40;;;;;;5038099;28;20115;-62
2023/08/03 08:08:33;;;;;;;2.08;0.80;;;22.80;46.60;;;;;;5039804;28;20028;-63
2023/08/03 08:10:59;;;;;;;3.40;0.70;;;22.80;46.70;;;;;;5041311;28;20116;-61
2023/08/03 08:13:25;;;;;;;2.85;0.70;;;22.90;47.20;;;;;;5020931;28;20039;-61
2023/08/03 08:15:50;;;;;;;2.42;0.90;;;22.90;47.20;;;;;;5039578;28;20022;-61
2023/08/03 08:18:16;;;;;;;1.60;0.70;;;22.90;47.10;;;;;;5044049;28;20468;-61
2023/08/03 08:20:44;;;;;;;2.08;0.65;;;23.00;46.90;;;;;;5042038;28;20017;-62
2023/08/03 08:23:10;;;;;;;3.58;0.88;;;23.00;46.80;;;;;;5048602;28;20094;-61
2023/08/03 08:25:37;;;;;;;3.17;0.70;;;23.10;47.00;;;;;;5041877;28;20094;-62
2023/08/03 08:28:03;;;;;;;3.30;0.98;;;23.10;46.70;;;;;;5045199;28;20041;-62
2023/08/03 08:30:29;;;;;;;4.80;0.90;;;23.20;46.90;;;;;;5046370;28;20054;-62
2023/08/03 08:32:55;;;;;;;1.63;0.60;;;23.20;46.00;;;;;;5044353;28;20101;-62
2023/08/03 08:35:20;;;;;;;2.25;0.75;;;23.20;46.30;;;;;;5045255;28;20573;-62
2023/08/03 08:37:46;;;;;;;1.48;0.60;;;23.20;45.90;;;;;;5048520;28;20064;-61
2023/08/03 08:40:12;;;;;;;2.70;0.75;;;23.20;45.70;;;;;;5040140;28;20044;-62
2023/08/03 08:42:38;;;;;;;2.13;0.60;;;23.30;46.20;;;;;;5044099;28;20025;-64
2023/08/03 08:45:07;;;;;;;4.10;0.60;;;23.30;46.50;;;;;;5037484;28;20036;-62
2023/08/03 08:47:33;;;;;;;2.45;0.60;;;23.30;45.80;;;;;;5044950;28;20037;-62
2023/08/03 08:49:59;;;;;;;0.77;0.45;;;23.40;45.90;;;;;;5041691;28;20025;-60
2023/08/03 08:52:29;;;;;;;1.20;0.50;;;23.40;45.70;;;;;;5039891;28;20025;-63
2023/08/03 08:55:15;;;;;;;6.68;0.98;;;23.50;45.50;;;;;;5038526;28;20033;-62
2023/08/03 08:57:40;;;;;;;1.95;0.65;;;23.50;44.60;;;;;;5045022;28;20536;-63
2023/08/03 09:00:07;;;;;;;2.88;0.43;;;23.50;44.90;;;;;;5062773;28;20075;-64
2023/08/03 09:02:34;;;;;;;3.78;0.57;;;23.50;44.80;;;;;;5028820;28;20033;-62
2023/08/03 09:05:18;;;;;;;3.42;1.00;;;23.60;45.60;;;;;;5046841;28;20029;-63
2023/08/03 09:07:44;;;;;;;3.15;0.40;;;23.60;44.60;;;;;;5047722;28;20050;-61
2023/08/03 09:10:11;;;;;;;3.78;0.77;;;23.70;45.30;;;;;;5037600;28;20032;-62
2023/08/03 09:12:38;;;;;;;2.78;0.70;;;23.70;45.60;;;;;;5041230;28;20025;-62
2023/08/03 09:15:05;;;;;;;0.98;0.52;;;23.80;44.90;;;;;;5043771;28;20068;-61
2023/08/03 09:17:31;;;;;;;2.60;0.50;;;23.80;45.30;;;;;;4946797;28;20036;-61
2023/08/03 09:19:57;;;;;;;0.95;0.40;;;24.00;45.50;;;;;;5027964;28;20091;-62
2023/08/03 09:22:24;;;;;;;2.15;0.70;;;24.10;45.90;;;;;;5038829;28;20064;-62
2023/08/03 09:25:06;;;;;;;0.88;0.40;;;24.20;45.00;;;;;;5038129;28;20028;-63
2023/08/03 09:27:33;;;;;;;1.13;0.50;;;24.30;43.50;;;;;;5038032;28;20045;-63
2023/08/03 09:30:03;;;;;;;1.38;0.60;;;24.20;43.60;;;;;;5039291;28;20041;-61
2023/08/03 09:32:34;;;;;;;1.73;0.50;;;24.20;43.80;;;;;;5037620;28;20025;-61
2023/08/03 09:35:01;;;;;;;3.88;1.05;;;24.20;44.40;;;;;;5041373;28;20025;-61
2023/08/03 09:37:36;;;;;;;3.50;0.77;;;24.20;44.60;;;;;;5038623;28;20060;-62
2023/08/03 09:40:07;;;;;;;2.53;0.50;;;24.30;44.30;;;;;;5042726;28;20069;-62
2023/08/03 09:42:32;;;;;;;0.52;0.40;;;24.40;43.80;;;;;;5036850;28;20025;-62
2023/08/03 09:45:02;;;;;;;1.55;0.50;;;24.40;43.30;;;;;;5040736;28;20035;-61
2023/08/03 09:47:30;;;;;;;1.25;0.47;;;24.40;42.90;;;;;;5036526;28;20037;-62
2023/08/03 09:49:56;;;;;;;1.65;0.50;;;24.40;43.00;;;;;;5044808;28;20112;-61
2023/08/03 09:52:26;;;;;;;0.85;0.50;;;24.40;43.00;;;;;;5024626;28;20033;-61
2023/08/03 09:55:06;;;;;;;1.42;0.70;;;24.40;42.30;;;;;;5041907;28;20037;-60
2023/08/03 09:57:38;;;;;;;1.48;0.60;;;24.40;42.40;;;;;;5034672;28;20461;-64
2023/08/03 10:00:06;;;;;;;1.42;0.50;;;24.40;42.00;;;;;;5038719;28;20079;-63
2023/08/03 10:02:55;;;;;;;2.08;0.60;;;24.40;42.40;;;;;;5042440;28;20025;-63
2023/08/03 10:05:23;;;;;;;3.25;0.65;;;24.40;42.60;;;;;;5037965;28;20024;-62
2023/08/03 10:08:06;;;;;;;0.45;0.40;;;24.50;42.20;;;;;;5040651;28;20068;-64
2023/08/03 10:10:38;;;;;;;0.60;0.30;;;24.50;41.00;;;;;;5036354;28;20775;-63
2023/08/03 10:13:05;;;;;;;1.02;0.50;;;24.50;41.50;;;;;;5039701;28;20487;-61
2023/08/03 10:15:32;;;;;;;3.08;0.60;;;24.60;41.30;;;;;;5038727;28;20035;-61
2023/08/03 10:17:59;;;;;;;2.30;0.70;;;24.60;41.30;;;;;;4938800;28;20356;-63
2023/08/03 10:20:25;;;;;;;3.22;0.50;;;24.60;41.40;;;;;;5040701;28;20029;-64
2023/08/03 10:23:10;;;;;;;2.70;0.60;;;24.60;41.90;;;;;;5042445;28;20625;-64
2023/08/03 10:25:59;;;;;;;3.38;0.47;;;24.70;42.40;;;;;;5040329;28;20936;-63
2023/08/03 10:28:26;;;;;;;4.30;0.60;;;24.70;42.60;;;;;;5042896;28;20826;-63
2023/08/03 10:31:05;;;;;;;3.95;0.38;;;24.80;42.80;;;;;;5042690;28;20593;-63
2023/08/03 10:33:49;;;;;;;1.13;0.30;;;24.90;42.30;;;;;;5036302;28;20094;-63
2023/08/03 10:36:38;;;;;;;3.47;0.50;;;24.90;42.10;;;;;;5035676;28;20037;-64
2023/08/03 10:39:11;;;;;;;3.05;0.60;;;25.00;41.80;;;;;;5040490;28;20048;-62
2023/08/03 10:41:41;;;;;;;1.70;0.50;;;24.90;41.70;;;;;;5041727;28;20475;-62
2023/08/03 10:44:12;;;;;;;1.23;0.50;;;24.90;42.40;;;;;;5044346;28;20115;-62
2023/08/03 10:46:47;;;;;;;2.75;0.40;;;25.00;41.70;;;;;;5031003;28;20064;-61
2023/08/03 10:49:55;;;;;;;2.50;0.50;;;25.00;41.60;;;;;;5038735;28;20045;-62
2023/08/03 10:52:21;;;;;;;1.00;0.50;;;25.00;39.90;;;;;;5041676;28;20532;-64
2023/08/03 10:54:47;;;;;;;2.05;0.50;;;25.00;41.10;;;;;;5031124;28;20115;-63
2023/08/03 10:57:25;;;;;;;0.45;0.40;;;25.00;41.00;;;;;;5039519;28;20069;-64
2023/08/03 10:59:54;;;;;;;1.10;0.50;;;25.00;40.60;;;;;;5036202;28;20380;-64
2023/08/03 11:02:32;;;;;;;2.78;0.93;;;25.00;40.80;;;;;;5040184;28;20495;-63
2023/08/03 11:05:06;;;;;;;4.55;0.60;;;25.10;41.10;;;;;;5039655;28;20082;-64
2023/08/03 11:07:43;;;;;;;3.75;0.43;;;25.20;40.40;;;;;;5042548;28;20060;-62
2023/08/03 11:10:11;;;;;;;1.73;0.50;;;25.30;40.30;;;;;;5039754;28;20029;-64
2023/08/03 11:12:38;;;;;;;1.05;0.40;;;25.40;40.70;;;;;;5037642;28;20384;-63
2023/08/03 11:15:05;;;;;;;6.72;0.80;;;25.50;40.20;;;;;;5041261;28;20082;-63
2023/08/03 11:17:37;;;;;;;1.85;0.43;;;25.60;39.80;;;;;;5027002;28;20021;-65
2023/08/03 11:20:09;;;;;;;1.23;0.50;;;25.70;40.00;;;;;;5049858;28;20067;-64
2023/08/03 11:22:35;;;;;;;1.00;0.40;;;25.80;40.20;;;;;;5041625;28;20086;-65
2023/08/03 11:25:04;;;;;;;0.65;0.30;;;25.90;39.10;;;;;;5040444;28;20041;-65
2023/08/03 11:27:32;;;;;;;1.75;0.60;;;25.90;39.30;;;;;;5039926;28;20037;-62
2023/08/03 11:29:58;;;;;;;3.45;0.50;;;25.90;39.10;;;;;;5039542;28;20040;-63
2023/08/03 11:32:29;;;;;;;2.55;0.50;;;25.80;38.30;;;;;;5044448;28;20055;-63
2023/08/03 11:35:03;;;;;;;2.20;0.50;;;25.80;39.20;;;;;;5043323;28;20025;-63
2023/08/03 11:37:30;;;;;;;1.42;0.52;;;25.60;39.20;;;;;;5040185;28;20470;-63
2023/08/03 11:39:56;;;;;;;0.73;0.40;;;25.70;39.20;;;;;;5047365;28;20021;-64
2023/08/03 11:42:22;;;;;;;0.75;0.40;;;25.60;39.60;;;;;;5048371;28;20025;-63
2023/08/03 11:44:48;;;;;;;5.50;0.50;;;25.60;39.60;;;;;;5048077;28;20418;-61
2023/08/03 11:47:14;;;;;;;1.95;0.50;;;25.50;39.40;;;;;;5037570;28;20036;-62
2023/08/03 11:49:39;;;;;;;1.27;0.50;;;25.50;39.80;;;;;;5046428;28;20082;-62
2023/08/03 11:52:05;;;;;;;2.70;0.43;;;25.40;39.90;;;;;;5021569;28;20071;-61
2023/08/03 11:54:37;;;;;;;1.33;0.90;;;25.40;40.50;;;;;;5047335;28;20131;-65
2023/08/03 11:59:48;;;;;;;1.35;0.60;;;25.50;40.60;;;;;;5038125;28;20033;-63
2023/08/03 12:02:14;;;;;;;7.60;0.55;;;25.60;39.60;;;;;;5026851;28;20032;-63
2023/08/03 12:04:41;;;;;;;0.93;0.40;;;25.60;39.90;;;;;;5041083;28;20040;-62
2023/08/03 12:07:07;;;;;;;2.10;0.55;;;25.60;40.20;;;;;;5044233;28;20033;-60
2023/08/03 12:09:38;;;;;;;0.85;0.52;;;25.60;40.20;;;;;;5042994;28;20097;-62
2023/08/03 12:12:09;;;;;;;3.08;0.63;;;25.50;40.70;;;;;;5031779;28;20079;-62
2023/08/03 12:14:35;;;;;;;4.03;0.70;;;25.50;40.90;;;;;;5045472;28;20044;-63
2023/08/03 12:17:01;;;;;;;1.23;0.50;;;25.50;40.40;;;;;;4935524;28;20029;-66
2023/08/03 12:19:32;;;;;;;1.77;0.60;;;25.60;40.40;;;;;;5038593;28;20025;-66
2023/08/03 12:22:02;;;;;;;2.85;0.60;;;25.50;40.10;;;;;;5048406;28;20106;-65
2023/08/03 12:24:28;;;;;;;2.85;0.65;;;25.50;40.10;;;;;;5046324;28;20106;-64
2023/08/03 12:26:55;;;;;;;1.45;0.50;;;25.50;40.10;;;;;;5039328;28;20175;-64
2023/08/03 12:29:20;;;;;;;3.90;0.75;;;25.50;40.00;;;;;;5043751;28;20037;-61
2023/08/03 12:31:46;;;;;;;2.75;0.55;;;25.40;40.40;;;;;;5047174;28;20021;-63
2023/08/03 12:34:12;;;;;;;3.08;0.90;;;25.50;40.50;;;;;;5044182;28;20503;-64
2023/08/03 12:36:38;;;;;;;2.10;0.50;;;25.60;40.50;;;;;;5044472;28;20100;-64
2023/08/03 12:39:05;;;;;;;1.25;0.60;;;25.70;40.30;;;;;;5040083;28;20033;-63
2023/08/03 12:41:31;;;;;;;1.02;0.45;;;25.80;40.30;;;;;;5044098;28;20032;-63
2023/08/03 12:43:57;;;;;;;4.18;0.50;;;25.80;40.10;;;;;;5047496;28;20539;-63
2023/08/03 12:46:23;;;;;;;4.40;0.65;;;25.90;40.70;;;;;;5039408;28;20044;-62
2023/08/03 12:48:50;;;;;;;5.45;0.70;;;26.10;40.00;;;;;;5038640;28;20037;-64
2023/08/03 12:51:17;;;;;;;0.90;0.40;;;26.20;40.30;;;;;;5046485;28;20077;-64